Time;durP1;ratioP1;P1;durP2;ratioP2;P2;SDS_P1;SDS_P2;PMS_P1;PMS_P2;Temp;Humidity;BMP_temperature;BMP_pressure;BME280_temperature;BME280_humidity;BME280_pressure;Samples;Min_cycle;Max_cycle;Signal;HPM_P1;HPM_P2
2022/08/15 00:00:23;;;;;;;9.70;3.78;;;;;;;20.35;64.03;97316.44;4913049;29;20045;-76
2022/08/15 00:02:52;;;;;;;6.10;4.00;;;;;;;20.27;65.15;97306.91;4885822;29;20501;-76
2022/08/15 00:05:29;;;;;;;4.57;3.55;;;;;;;20.18;64.35;97309.19;4908167;29;20529;-76
2022/08/15 00:07:58;;;;;;;8.23;4.28;;;;;;;20.12;64.59;97307.50;4914961;29;20052;-76
2022/08/15 00:10:27;;;;;;;7.07;3.65;;;;;;;20.06;64.69;97308.44;4893642;29;20048;-76
2022/08/15 00:13:21;;;;;;;5.28;3.90;;;;;;;19.99;64.62;97298.94;4885999;29;20060;-76
2022/08/15 00:15:51;;;;;;;4.90;4.28;;;;;;;19.92;68.13;97286.47;4887810;29;20393;-75
2022/08/15 00:18:19;;;;;;;4.97;4.45;;;;;;;19.85;67.84;97285.00;4878120;29;20053;-76
2022/08/15 00:20:47;;;;;;;6.43;4.25;;;;;;;19.77;68.59;97283.50;4914244;29;20059;-76
2022/08/15 00:23:19;;;;;;;6.55;4.10;;;;;;;19.71;69.54;97282.59;4916347;29;20408;-76
2022/08/15 00:25:54;;;;;;;7.43;4.40;;;;;;;19.67;68.58;97283.34;4892362;29;20050;-77
2022/08/15 00:28:25;;;;;;;7.72;3.63;;;;;;;19.65;67.88;97272.81;4899446;29;20435;-76
2022/08/15 00:31:05;;;;;;;4.30;3.90;;;;;;;19.68;67.67;97275.03;4895115;29;20049;-76
2022/08/15 00:33:40;;;;;;;4.28;3.88;;;;;;;19.72;68.74;97292.31;4883664;29;20071;-77
2022/08/15 00:36:08;;;;;;;6.65;3.50;;;;;;;19.82;64.23;97290.84;4887307;29;20056;-75
2022/08/15 00:38:56;;;;;;;5.90;4.00;;;;;;;19.81;65.41;97292.72;4906178;29;20044;-76
2022/08/15 00:41:40;;;;;;;4.07;3.65;;;;;;;19.81;64.02;97303.44;4888056;29;20461;-76
2022/08/15 00:44:22;;;;;;;5.22;4.10;;;;;;;19.84;65.94;97302.16;4891201;29;20047;-76
2022/08/15 00:47:19;;;;;;;13.40;4.22;;;;;;;19.84;67.11;97304.84;4892679;29;20048;-75
2022/08/15 00:49:48;;;;;;;7.68;3.97;;;;;;;19.80;68.41;97292.94;4911170;29;20053;-76
2022/08/15 00:52:31;;;;;;;6.20;4.32;;;;;;;19.71;69.50;97296.03;4889080;29;20131;-76
2022/08/15 00:55:11;;;;;;;6.10;4.05;;;;;;;19.61;68.84;97301.16;4904636;29;20055;-76
2022/08/15 00:57:44;;;;;;;6.00;4.85;;;;;;;19.60;70.05;97314.84;4882188;29;20061;-75
2022/08/15 01:00:31;;;;;;;6.97;4.60;;;;;;;19.52;71.70;97310.66;4885910;29;20076;-76
2022/08/15 01:03:08;;;;;;;9.90;5.15;;;;;;;19.20;73.74;97315.66;4892635;29;20051;-75
2022/08/15 01:05:49;;;;;;;7.30;4.75;;;;;;;18.94;75.32;97320.47;4915746;29;20519;-75
2022/08/15 01:08:22;;;;;;;7.88;5.05;;;;;;;18.64;74.71;97316.06;4875827;29;22306;-75
2022/08/15 01:10:58;;;;;;;6.53;5.03;;;;;;;18.38;75.60;97329.91;4881989;29;20145;-75
2022/08/15 01:13:30;;;;;;;6.60;5.47;;;;;;;18.21;77.04;97324.38;4867361;29;20055;-75
2022/08/15 01:16:18;;;;;;;6.75;5.38;;;;;;;18.16;78.15;97325.06;4892465;29;20055;-74
2022/08/15 01:19:03;;;;;;;6.32;5.00;;;;;;;18.20;78.42;97322.75;4894260;29;20055;-76
2022/08/15 01:21:38;;;;;;;7.60;5.60;;;;;;;18.23;77.96;97316.94;4913273;29;20063;-74
2022/08/15 01:24:39;;;;;;;6.70;6.10;;;;;;;18.29;78.23;97321.38;4872809;29;20131;-75
2022/08/15 01:27:31;;;;;;;7.40;5.55;;;;;;;18.35;77.99;97315.09;4897935;29;20051;-75
2022/08/15 01:30:03;;;;;;;6.45;5.85;;;;;;;18.38;77.85;97313.84;4905702;29;20426;-76
2022/08/15 01:32:53;;;;;;;6.40;5.53;;;;;;;18.42;78.13;97314.97;4879876;29;20056;-76
2022/08/15 01:35:20;;;;;;;7.15;6.55;;;;;;;18.53;78.47;97311.47;4887903;29;20105;-76
2022/08/15 01:37:51;;;;;;;6.03;5.32;;;;;;;18.56;77.68;97315.56;4896251;29;20891;-76
2022/08/15 01:40:39;;;;;;;6.93;5.60;;;;;;;18.61;77.11;97311.13;4868022;29;20519;-76
2022/08/15 01:43:25;;;;;;;9.98;6.20;;;;;;;18.64;76.11;97307.19;4909161;29;20100;-76
2022/08/15 01:45:58;;;;;;;7.88;5.43;;;;;;;18.63;75.82;97310.91;4889233;29;20136;-76
2022/08/15 01:48:27;;;;;;;6.47;5.38;;;;;;;18.64;75.76;97312.53;4911513;29;20045;-76
2022/08/15 01:51:06;;;;;;;7.80;5.93;;;;;;;18.64;76.59;97324.09;4888706;29;20101;-76
2022/08/15 01:53:59;;;;;;;6.97;5.45;;;;;;;18.60;76.14;97322.09;4897644;29;20405;-76
2022/08/15 01:56:34;;;;;;;7.18;5.82;;;;;;;18.61;75.77;97321.03;4884008;29;20060;-74
2022/08/15 01:59:06;;;;;;;6.38;5.70;;;;;;;18.59;75.52;97315.94;4890945;29;20053;-76
2022/08/15 02:01:56;;;;;;;6.25;5.65;;;;;;;18.55;75.12;97319.31;4872917;29;20079;-76
2022/08/15 02:04:37;;;;;;;6.70;5.75;;;;;;;18.52;75.63;97317.09;4879996;29;20085;-75
2022/08/15 02:07:11;;;;;;;5.70;5.20;;;;;;;18.54;76.27;97328.41;4921902;29;20055;-76
2022/08/15 02:09:48;;;;;;;5.88;5.28;;;;;;;18.53;76.16;97332.91;4892563;29;20480;-76
2022/08/15 02:12:35;;;;;;;8.00;5.53;;;;;;;18.56;76.20;97334.31;4902410;29;20053;-76
2022/08/15 02:15:22;;;;;;;6.70;5.00;;;;;;;18.59;76.26;97332.00;4897804;29;20084;-75
2022/08/15 02:17:54;;;;;;;10.50;6.20;;;;;;;18.56;76.21;97326.28;4882051;29;20502;-76
2022/08/15 02:20:23;;;;;;;7.28;5.60;;;;;;;18.54;75.83;97333.75;4901341;29;20544;-75
2022/08/15 02:22:54;;;;;;;7.13;6.10;;;;;;;18.50;76.19;97343.28;4893507;29;20044;-77
2022/08/15 02:25:22;;;;;;;8.75;5.88;;;;;;;18.49;76.16;97339.81;4879819;29;20119;-75
2022/08/15 02:27:53;;;;;;;7.70;5.68;;;;;;;18.51;76.12;97343.06;4906738;29;20423;-76
2022/08/15 02:30:22;;;;;;;7.05;6.03;;;;;;;18.55;76.19;97332.69;4893023;29;20406;-76
2022/08/15 02:33:03;;;;;;;6.82;5.78;;;;;;;18.57;76.29;97335.97;4899964;29;20556;-76
2022/08/15 02:35:33;;;;;;;5.93;5.32;;;;;;;18.60;76.08;97333.63;4877859;29;20113;-75
2022/08/15 02:38:06;;;;;;;6.78;5.90;;;;;;;18.64;75.90;97332.13;4896783;29;20048;-77
2022/08/15 02:40:45;;;;;;;9.93;6.10;;;;;;;18.66;75.51;97337.22;4877655;29;20052;-77
2022/08/15 02:43:22;;;;;;;7.10;4.78;;;;;;;18.65;74.74;97330.25;4921587;29;20048;-77
2022/08/15 02:45:50;;;;;;;6.55;5.35;;;;;;;18.64;74.16;97328.59;4886920;29;20052;-76
2022/08/15 02:48:42;;;;;;;5.47;4.60;;;;;;;18.64;74.15;97326.78;4893962;29;20045;-76
2022/08/15 02:51:23;;;;;;;5.80;5.20;;;;;;;18.66;73.91;97326.50;4876115;29;20451;-76
2022/08/15 02:53:51;;;;;;;8.88;5.22;;;;;;;18.68;73.61;97326.28;4892464;29;20105;-77
2022/08/15 02:56:20;;;;;;;8.50;5.07;;;;;;;18.70;74.23;97332.25;4925844;29;20076;-76
2022/08/15 02:58:48;;;;;;;7.90;5.00;;;;;;;18.72;73.68;97340.84;4887289;29;20059;-76
2022/08/15 03:01:17;;;;;;;10.38;5.82;;;;;;;18.73;74.09;97340.63;4902277;29;20052;-76
2022/08/15 03:03:53;;;;;;;9.40;4.82;;;;;;;18.76;73.71;97336.69;4916837;29;20059;-76
2022/08/15 03:06:26;;;;;;;;;;;;;;;18.77;74.00;97338.31;4894232;29;20045;-77
2022/08/15 03:09:06;;;;;;;8.15;4.50;;;;;;;18.77;73.69;97335.63;4892257;29;20129;-77
2022/08/15 03:11:39;;;;;;;5.53;4.97;;;;;;;18.76;73.83;97342.06;4900148;29;20076;-77
2022/08/15 03:14:30;;;;;;;;;;;;;;;18.75;73.59;97343.91;4911299;29;20037;-76
2022/08/15 03:17:03;;;;;;;4.97;4.32;;;;;;;18.73;73.28;97348.66;4898134;29;20318;-77
2022/08/15 03:19:35;;;;;;;;;;;;;;;18.65;74.10;97347.13;4874082;29;20087;-74
2022/08/15 03:22:07;;;;;;;;;;;;;;;18.61;73.33;97343.28;4894115;29;19969;-77
2022/08/15 03:24:36;;;;;;;7.15;4.50;;;;;;;18.61;73.57;97348.63;4911417;29;19938;-77
2022/08/15 03:27:03;;;;;;;6.50;4.50;;;;;;;18.61;73.34;97337.91;4895754;29;20053;-77
2022/08/15 03:29:30;;;;;;;6.90;4.88;;;;;;;18.60;73.96;97349.69;4890303;29;20479;-75
2022/08/15 03:32:10;;;;;;;5.90;4.80;;;;;;;18.65;74.09;97349.81;4890948;29;20049;-77
2022/08/15 03:34:57;;;;;;;7.28;4.55;;;;;;;18.68;73.48;97345.84;4891730;29;20036;-76
2022/08/15 03:37:25;;;;;;;6.13;4.30;;;;;;;18.68;73.33;97343.19;4895165;29;20465;-76
2022/08/15 03:39:53;;;;;;;6.97;4.72;;;;;;;18.76;72.71;97350.91;4905286;29;20131;-76
2022/08/15 03:42:20;;;;;;;4.40;4.00;;;;;;;18.85;73.44;97352.19;4891741;29;20147;-76
2022/08/15 03:44:48;;;;;;;6.30;4.55;;;;;;;18.88;73.29;97344.72;4904718;29;20060;-77
2022/08/15 03:47:18;;;;;;;5.22;4.13;;;;;;;18.90;72.40;97342.63;4892218;29;20476;-76
2022/08/15 03:49:45;;;;;;;5.18;4.07;;;;;;;18.92;72.01;97351.25;4910405;29;20131;-75
2022/08/15 03:52:32;;;;;;;4.28;3.65;;;;;;;18.94;72.31;97343.78;4886020;29;20080;-77
2022/08/15 03:55:05;;;;;;;4.18;3.10;;;;;;;19.05;72.04;97349.13;4884340;29;20044;-76
2022/08/15 03:57:44;;;;;;;4.30;3.58;;;;;;;19.26;68.79;97345.00;4891707;29;20498;-77
2022/08/15 04:00:37;;;;;;;4.85;3.40;;;;;;;19.47;68.83;97348.13;4906725;29;20052;-76
2022/08/15 04:03:11;;;;;;;5.78;3.45;;;;;;;19.57;67.69;97353.69;4894534;29;20053;-77
2022/08/15 04:05:39;;;;;;;5.53;3.30;;;;;;;19.66;68.55;97356.81;4878820;29;20052;-77
2022/08/15 04:08:11;;;;;;;6.07;3.10;;;;;;;19.68;67.70;97349.38;4882426;29;20045;-76
2022/08/15 04:11:01;;;;;;;3.78;3.00;;;;;;;19.67;68.62;97348.56;4895304;29;20518;-76
2022/08/15 04:13:29;;;;;;;6.13;3.35;;;;;;;19.67;68.09;97353.13;4892948;29;20053;-77
2022/08/15 04:15:59;;;;;;;5.43;3.10;;;;;;;19.66;68.12;97352.28;4899834;29;20133;-77
2022/08/15 04:18:46;;;;;;;5.50;3.30;;;;;;;19.61;68.18;97354.03;4897044;29;20043;-74
2022/08/15 04:21:16;;;;;;;4.25;3.35;;;;;;;19.56;68.92;97352.03;4894287;29;20041;-76
2022/08/15 04:23:46;;;;;;;4.60;3.30;;;;;;;19.52;69.37;97353.59;4885130;29;20044;-77
2022/08/15 04:26:15;;;;;;;4.45;3.47;;;;;;;19.50;69.31;97358.38;4872463;29;20055;-77
2022/08/15 04:28:47;;;;;;;5.38;3.42;;;;;;;19.52;69.67;97357.09;4898644;29;20048;-77
2022/08/15 04:31:25;;;;;;;6.57;3.13;;;;;;;19.55;69.01;97357.66;4894986;29;20101;-75
2022/08/15 04:33:58;;;;;;;6.28;3.13;;;;;;;19.56;69.38;97353.91;4903817;29;20057;-76
2022/08/15 04:36:46;;;;;;;4.60;2.78;;;;;;;19.56;69.63;97356.59;4894499;29;20460;-77
2022/08/15 04:39:13;;;;;;;8.15;3.72;;;;;;;19.57;70.28;97359.06;4895835;29;20568;-77
2022/08/15 04:41:59;;;;;;;7.75;3.60;;;;;;;19.55;69.89;97355.78;4906282;29;20512;-77
2022/08/15 04:44:28;;;;;;;4.28;3.10;;;;;;;19.52;70.92;97357.09;4908141;29;20116;-75
2022/08/15 04:46:56;;;;;;;10.13;3.90;;;;;;;19.46;71.92;97362.59;4912899;29;20056;-76
2022/08/15 04:49:23;;;;;;;5.45;3.60;;;;;;;19.38;72.61;97360.25;4908832;29;20051;-76
2022/08/15 04:51:52;;;;;;;6.60;3.25;;;;;;;19.30;72.46;97370.31;4895640;29;20531;-76
2022/08/15 04:54:20;;;;;;;4.80;3.63;;;;;;;19.24;72.66;97371.25;4899862;29;20432;-76
2022/08/15 04:57:05;;;;;;;6.47;3.78;;;;;;;19.22;72.97;97362.66;4897146;29;20152;-76
2022/08/15 04:59:36;;;;;;;5.00;3.28;;;;;;;19.22;73.39;97362.66;4868952;29;20056;-76
2022/08/15 05:02:24;;;;;;;5.65;3.60;;;;;;;19.26;71.65;97362.97;4867062;29;20106;-75
2022/08/15 05:05:11;;;;;;;4.03;3.22;;;;;;;19.32;69.75;97367.38;4882140;29;20064;-76
2022/08/15 05:07:38;;;;;;;5.20;2.95;;;;;;;19.44;70.63;97376.22;4894633;29;20045;-76
2022/08/15 05:10:26;;;;;;;7.22;3.63;;;;;;;19.56;70.05;97378.88;4890302;29;20051;-76
2022/08/15 05:13:16;;;;;;;3.03;2.40;;;;;;;19.62;67.98;97377.94;4886181;29;20420;-76
2022/08/15 05:15:44;;;;;;;7.60;2.88;;;;;;;19.66;66.92;97373.75;4883618;29;20057;-75
2022/08/15 05:18:22;;;;;;;3.05;2.22;;;;;;;19.76;67.04;97375.81;4879450;29;20148;-76
2022/08/15 05:20:50;;;;;;;3.50;2.72;;;;;;;19.78;67.30;97370.22;4881569;29;20049;-77
2022/08/15 05:23:19;;;;;;;2.42;2.15;;;;;;;19.83;66.30;97359.59;4891217;29;20048;-77
2022/08/15 05:26:02;;;;;;;4.50;2.35;;;;;;;19.90;66.43;97363.72;4865992;29;20096;-77
2022/08/15 05:28:29;;;;;;;3.90;2.22;;;;;;;20.01;66.54;97364.75;4903914;29;20109;-77
2022/08/15 05:31:05;;;;;;;9.10;2.45;;;;;;;20.09;66.00;97359.00;4893620;29;20768;-77
2022/08/15 05:33:44;;;;;;;2.63;2.00;;;;;;;20.15;66.24;97367.94;4890662;29;20059;-77
2022/08/15 05:36:24;;;;;;;;;;;;;;;20.19;65.82;97361.03;4874824;29;20496;-78
2022/08/15 05:38:58;;;;;;;6.13;2.40;;;;;;;20.23;65.22;97361.38;4891721;29;19927;-76
2022/08/15 05:41:33;;;;;;;5.05;2.47;;;;;;;20.18;65.62;97357.53;4904764;29;20135;-76
2022/08/15 05:44:28;;;;;;;2.97;2.47;;;;;;;20.15;66.05;97360.69;4902383;29;20170;-76
2022/08/15 05:47:23;;;;;;;3.90;2.20;;;;;;;20.16;65.30;97362.31;4882022;29;20096;-78
2022/08/15 05:49:56;;;;;;;5.13;2.13;;;;;;;20.23;65.74;97366.75;4875834;29;20100;-77
2022/08/15 05:52:41;;;;;;;3.45;2.35;;;;;;;20.28;64.86;97361.47;4877931;29;20053;-77
2022/08/15 05:55:13;;;;;;;3.80;2.55;;;;;;;20.37;65.12;97373.41;4871484;29;20070;-77
2022/08/15 05:57:40;;;;;;;4.00;2.28;;;;;;;20.39;65.05;97360.56;4896982;29;20516;-78
2022/08/15 06:00:13;;;;;;;2.50;2.28;;;;;;;20.36;64.60;97366.44;4888003;29;20049;-77
2022/08/15 06:02:48;;;;;;;2.45;2.10;;;;;;;20.34;64.43;97361.28;4883723;29;20130;-77
2022/08/15 06:05:32;;;;;;;4.47;2.22;;;;;;;20.25;64.51;97361.91;4902275;29;20688;-78
2022/08/15 06:08:12;;;;;;;3.65;2.45;;;;;;;20.23;64.46;97358.69;4873904;29;20046;-77
2022/08/15 06:11:03;;;;;;;3.78;2.63;;;;;;;20.19;64.69;97361.03;4900404;29;20143;-77
2022/08/15 06:13:42;;;;;;;3.53;2.28;;;;;;;20.17;65.35;97355.09;4890152;29;20062;-77
2022/08/15 06:16:16;;;;;;;3.53;2.22;;;;;;;20.13;65.03;97354.75;4885992;29;20569;-77
2022/08/15 06:19:13;;;;;;;3.00;2.25;;;;;;;20.12;65.17;97350.44;4887601;29;20041;-78
2022/08/15 06:22:05;;;;;;;4.03;2.50;;;;;;;20.10;65.45;97349.88;4894500;29;20079;-76
2022/08/15 06:24:43;;;;;;;9.90;2.58;;;;;;;20.08;65.81;97349.28;4888359;29;20177;-76
2022/08/15 06:27:20;;;;;;;2.80;1.92;;;;;;;20.16;66.42;97351.56;4888799;29;20048;-77
2022/08/15 06:30:06;;;;;;;3.47;2.58;;;;;;;20.22;65.89;97349.81;4900996;29;20504;-76
2022/08/15 06:32:45;;;;;;;3.67;2.10;;;;;;;20.26;66.02;97359.00;4891284;29;20060;-77
2022/08/15 06:35:29;;;;;;;3.55;2.00;;;;;;;20.29;65.49;97373.81;4887532;29;20044;-78
2022/08/15 06:38:19;;;;;;;5.63;2.40;;;;;;;20.31;64.71;97377.91;4888707;29;20048;-77
2022/08/15 06:41:18;;;;;;;5.50;2.30;;;;;;;20.39;65.61;97385.56;4887276;29;20668;-77
2022/08/15 06:43:52;;;;;;;4.78;2.42;;;;;;;20.39;64.90;97379.38;4890326;29;20053;-77
2022/08/15 06:46:38;;;;;;;4.30;2.60;;;;;;;20.29;65.36;97387.25;4900968;29;20057;-77
2022/08/15 06:49:19;;;;;;;2.80;2.30;;;;;;;20.26;65.82;97385.88;4877915;29;20053;-77
2022/08/15 06:51:50;;;;;;;2.95;2.08;;;;;;;20.26;65.45;97383.19;4879673;29;20052;-77
2022/08/15 06:54:24;;;;;;;2.75;2.55;;;;;;;20.21;65.98;97401.06;4888551;29;20045;-78
2022/08/15 06:57:27;;;;;;;10.27;2.40;;;;;;;20.07;66.41;97395.19;4893554;29;20124;-76
2022/08/15 07:00:14;;;;;;;4.00;2.10;;;;;;;20.08;65.87;97392.25;4891759;29;20076;-79
2022/08/15 07:03:10;;;;;;;;;;;;;;;20.21;65.73;97401.88;4891115;29;20045;-77
2022/08/15 07:05:44;;;;;;;4.35;2.40;;;;;;;20.38;64.15;97399.25;4915935;29;19947;-77
2022/08/15 07:08:26;;;;;;;4.07;2.47;;;;;;;20.61;65.00;97409.84;4887636;29;20552;-76
2022/08/15 07:11:13;;;;;;;3.95;2.20;;;;;;;20.85;63.89;97404.31;4894937;29;20072;-76
2022/08/15 07:13:49;;;;;;;2.78;2.47;;;;;;;20.79;64.30;97395.34;4896892;29;20433;-76
2022/08/15 07:16:55;;;;;;;4.80;2.10;;;;;;;21.06;62.76;97397.38;4892797;29;20113;-77
2022/08/15 07:19:22;;;;;;;2.67;2.10;;;;;;;21.43;61.89;97399.50;4898182;29;20055;-78
2022/08/15 07:22:00;;;;;;;2.85;1.90;;;;;;;21.81;60.61;97395.16;4882324;29;20056;-77
2022/08/15 07:24:30;;;;;;;4.18;1.95;;;;;;;21.69;61.05;97406.03;4860654;29;88115;-77
2022/08/15 07:27:02;;;;;;;3.25;2.00;;;;;;;21.79;59.21;97403.47;4896979;29;20055;-77
2022/08/15 07:29:35;;;;;;;5.97;2.90;;;;;;;21.70;60.64;97402.28;4898962;29;20053;-76
2022/08/15 07:32:10;;;;;;;5.28;2.05;;;;;;;21.66;61.16;97404.66;4885968;29;20043;-76
2022/08/15 07:35:12;;;;;;;4.55;2.30;;;;;;;21.87;59.70;97402.22;4896886;29;20041;-77
2022/08/15 07:37:49;;;;;;;9.85;2.30;;;;;;;21.79;60.49;97402.66;4881321;29;20056;-76
2022/08/15 07:40:22;;;;;;;2.95;1.83;;;;;;;21.92;59.02;97403.09;4880611;29;20048;-76
2022/08/15 07:43:01;;;;;;;4.82;2.13;;;;;;;21.85;59.24;97407.88;4895592;29;20062;-76
2022/08/15 07:45:39;;;;;;;2.30;1.65;;;;;;;22.02;58.61;97409.66;4892657;29;20059;-77
2022/08/15 07:48:22;;;;;;;3.78;2.35;;;;;;;21.88;58.01;97403.81;4898890;29;20056;-77
2022/08/15 07:51:07;;;;;;;3.42;2.00;;;;;;;21.79;58.44;97408.84;4884559;29;20133;-77
2022/08/15 07:53:54;;;;;;;2.53;1.92;;;;;;;21.87;58.58;97413.78;4887610;29;20052;-76
2022/08/15 07:56:29;;;;;;;2.65;2.10;;;;;;;21.98;58.51;97409.31;4888177;29;20092;-77
2022/08/15 07:59:19;;;;;;;7.57;2.28;;;;;;;;;;4904361;29;20053;-75
2022/08/15 08:02:27;;;;;;;4.05;2.10;;;;;;;22.36;56.15;97413.00;4889789;29;20053;-76
2022/08/15 08:05:06;;;;;;;2.55;2.22;;;;;;;22.38;57.17;97412.72;4876429;29;20544;-77
2022/08/15 08:07:40;;;;;;;2.70;2.03;;;;;;;22.26;55.64;97416.41;4905493;29;20065;-76
2022/08/15 08:10:28;;;;;;;2.35;2.13;;;;;;;21.98;57.72;97420.09;4876142;29;20041;-75
2022/08/15 08:13:38;;;;;;;3.50;2.35;;;;;;;22.30;57.21;97420.22;4886683;29;20063;-76
2022/08/15 08:16:40;;;;;;;2.30;1.95;;;;;;;22.10;57.68;97411.91;4887473;29;20540;-78
2022/08/15 08:19:48;;;;;;;5.50;2.53;;;;;;;22.14;58.23;97408.44;4885829;29;20064;-76
2022/08/15 08:22:28;;;;;;;2.95;2.15;;;;;;;22.48;56.45;97407.44;4874570;29;20075;-76
2022/08/15 08:25:02;;;;;;;3.15;2.03;;;;;;;22.70;56.73;97410.88;4874951;29;20470;-76
2022/08/15 08:27:44;;;;;;;1.90;1.75;;;;;;;23.00;56.19;97414.91;4876246;29;20049;-76
2022/08/15 08:30:24;;;;;;;2.83;1.85;;;;;;;22.68;56.65;97423.78;4887217;29;20076;-75
2022/08/15 08:33:13;;;;;;;3.13;2.00;;;;;;;22.27;57.68;97417.22;4891746;29;20049;-77
2022/08/15 08:35:52;;;;;;;2.47;1.83;;;;;;;22.23;57.40;97408.81;4891039;29;20048;-77
2022/08/15 08:38:43;;;;;;;4.00;1.90;;;;;;;22.09;58.27;97410.25;4888869;29;20052;-76
2022/08/15 08:42:07;;;;;;;2.05;1.73;;;;;;;22.20;57.46;97411.22;4880305;29;20052;-76
2022/08/15 08:45:11;;;;;;;2.42;2.10;;;;;;;22.46;56.06;97412.25;4888113;29;20389;-75
2022/08/15 08:48:10;;;;;;;3.92;2.15;;;;;;;22.75;54.91;97413.63;4896939;29;20055;-74
2022/08/15 08:50:51;;;;;;;3.30;1.90;;;;;;;23.23;54.49;97409.13;4913909;29;20096;-74
2022/08/15 08:53:18;;;;;;;2.17;1.83;;;;;;;23.15;54.56;97400.72;4892392;29;20136;-74
2022/08/15 08:56:08;;;;;;;3.60;1.85;;;;;;;23.05;55.60;97406.84;4884869;29;20049;-75
2022/08/15 08:59:16;;;;;;;2.80;2.05;;;;;;;22.58;56.40;97410.22;4884196;29;20063;-76
2022/08/15 09:01:47;;;;;;;3.03;1.90;;;;;;;22.65;56.19;97413.53;4914336;29;20063;-74
2022/08/15 09:04:18;;;;;;;4.68;2.40;;;;;;;22.65;56.64;97420.81;4909847;29;20049;-74
2022/08/15 09:06:48;;;;;;;2.88;2.10;;;;;;;23.00;55.38;97409.50;4886198;29;20052;-74
2022/08/15 09:09:30;;;;;;;1.92;1.75;;;;;;;23.29;53.78;97414.53;4891750;29;20048;-74
2022/08/15 09:14:59;;;;;;;3.08;1.92;;;;;;;23.85;53.21;97409.41;4888023;29;20049;-76
2022/08/15 09:17:34;;;;;;;2.03;1.75;;;;;;;23.99;52.44;97415.97;4877937;29;20059;-73
2022/08/15 09:20:07;;;;;;;6.07;2.30;;;;;;;23.97;52.70;97420.81;4916510;29;20055;-73
2022/08/15 09:22:45;;;;;;;2.95;2.42;;;;;;;23.71;53.57;97414.47;4913596;29;20060;-74
2022/08/15 09:25:13;;;;;;;2.45;2.08;;;;;;;23.21;54.18;97421.25;4891087;29;20056;-73
2022/08/15 09:27:52;;;;;;;4.80;2.35;;;;;;;23.27;55.43;97414.78;4881181;29;20057;-74
2022/08/15 09:30:25;;;;;;;3.60;2.10;;;;;;;23.86;53.41;97411.06;4915307;29;20036;-74
2022/08/15 09:33:18;;;;;;;10.13;2.65;;;;;;;23.95;52.49;97405.94;4876831;29;20053;-74
2022/08/15 09:36:19;;;;;;;3.10;2.58;;;;;;;24.06;53.19;97407.59;4895713;29;20044;-74
2022/08/15 09:39:08;;;;;;;6.30;3.45;;;;;;;23.62;53.36;97406.06;4891283;29;20123;-73
2022/08/15 09:42:09;;;;;;;3.90;2.70;;;;;;;23.40;53.30;97406.22;4890138;29;20067;-74
2022/08/15 09:44:55;;;;;;;4.40;2.50;;;;;;;23.95;52.89;97401.34;4881929;29;20559;-74
2022/08/15 09:47:50;;;;;;;4.05;2.42;;;;;;;24.26;53.27;97401.44;4880380;29;20050;-74
2022/08/15 09:50:56;;;;;;;6.00;2.67;;;;;;;24.65;51.11;97398.25;4882918;29;20056;-73
2022/08/15 09:53:37;;;;;;;3.15;2.67;;;;;;;24.37;51.19;97400.38;4893545;29;20112;-73
2022/08/15 09:56:25;;;;;;;2.90;2.42;;;;;;;24.97;49.91;97390.66;4889154;29;20105;-73
2022/08/15 09:59:08;;;;;;;2.97;2.67;;;;;;;24.60;49.95;97395.56;4880842;29;20040;-73
2022/08/15 10:01:46;;;;;;;3.58;2.28;;;;;;;24.46;49.81;97387.97;4881326;29;20044;-73
2022/08/15 10:04:40;;;;;;;3.20;2.47;;;;;;;24.03;51.20;97389.22;4884585;29;20108;-72
2022/08/15 10:07:07;;;;;;;3.00;2.55;;;;;;;24.12;50.87;97394.91;4875265;29;20037;-73
2022/08/15 10:10:01;;;;;;;2.47;2.03;;;;;;;23.80;51.90;97385.09;4890067;29;20514;-72
2022/08/15 10:12:32;;;;;;;2.45;2.05;;;;;;;23.64;51.59;97381.50;4883147;29;20076;-73
2022/08/15 10:15:05;;;;;;;2.35;2.15;;;;;;;23.61;51.73;97372.03;4916250;29;20047;-73
2022/08/15 10:17:34;;;;;;;5.57;1.90;;;;;;;23.87;51.84;97372.16;4888521;29;20105;-73
2022/08/15 10:20:14;;;;;;;6.07;2.13;;;;;;;24.50;50.33;97375.53;4882868;29;20064;-73
2022/08/15 10:22:57;;;;;;;3.55;2.33;;;;;;;24.37;49.96;97376.03;4880019;29;20123;-73
2022/08/15 10:25:30;;;;;;;1.98;1.88;;;;;;;24.62;48.49;97371.75;4887675;29;20076;-73
2022/08/15 10:28:05;;;;;;;3.75;2.10;;;;;;;24.66;49.71;97370.13;4886611;29;20096;-73
2022/08/15 10:30:59;;;;;;;4.28;1.90;;;;;;;24.96;47.41;97375.50;4888016;29;20771;-73
2022/08/15 10:33:38;;;;;;;2.75;2.00;;;;;;;24.57;49.88;97372.56;4885715;29;20128;-73
2022/08/15 10:36:13;;;;;;;3.88;2.33;;;;;;;24.23;49.74;97367.66;4885738;29;20079;-75
2022/08/15 10:39:10;;;;;;;5.28;2.15;;;;;;;24.56;48.18;97364.72;4881235;29;20045;-73
2022/08/15 10:41:52;;;;;;;3.33;1.58;;;;;;;24.59;48.55;97364.97;4885465;29;20052;-74
2022/08/15 10:44:44;;;;;;;2.97;2.03;;;;;;;24.36;48.62;97355.50;4887581;29;20049;-72
2022/08/15 10:47:47;;;;;;;5.03;2.10;;;;;;;24.40;49.20;97356.56;4885752;29;20045;-73
2022/08/15 10:50:46;;;;;;;2.22;1.90;;;;;;;24.64;48.61;97346.03;4884435;29;20041;-72
2022/08/15 10:53:31;;;;;;;2.53;1.80;;;;;;;24.51;47.53;97347.44;4871515;29;20140;-73
2022/08/15 10:56:20;;;;;;;2.55;1.55;;;;;;;24.51;48.53;97344.72;4877639;29;20882;-74
2022/08/15 10:59:14;;;;;;;1.75;1.65;;;;;;;24.42;47.81;97349.00;4876125;29;20067;-74
2022/08/15 11:01:44;;;;;;;3.97;1.92;;;;;;;24.33;47.80;97342.53;4888084;29;20089;-73
2022/08/15 11:04:25;;;;;;;3.95;2.00;;;;;;;24.41;48.14;97346.56;4886222;29;20121;-74
2022/08/15 11:07:20;;;;;;;5.72;2.08;;;;;;;24.61;48.00;97340.38;4885371;29;21208;-73
2022/08/15 11:09:57;;;;;;;2.15;1.48;;;;;;;24.83;47.76;97338.22;4881397;29;20924;-73
2022/08/15 11:12:28;;;;;;;5.40;1.70;;;;;;;25.04;44.83;97336.28;4880689;29;20064;-74
2022/08/15 11:15:00;;;;;;;2.50;2.20;;;;;;;25.05;47.62;97328.94;4884539;29;20052;-73
2022/08/15 11:17:30;;;;;;;2.17;1.90;;;;;;;24.95;47.88;97329.78;4887236;29;22278;-73
2022/08/15 11:20:19;;;;;;;3.20;1.80;;;;;;;24.63;48.00;97332.81;4881605;29;20412;-74
2022/08/15 11:22:54;;;;;;;6.57;2.03;;;;;;;24.65;46.31;97339.56;4884215;29;20045;-73
2022/08/15 11:25:25;;;;;;;1.67;1.58;;;;;;;24.68;47.70;97333.63;4881885;29;20519;-73
2022/08/15 11:28:10;;;;;;;4.53;1.80;;;;;;;25.00;45.64;97334.38;4877612;29;20074;-73
2022/08/15 11:31:06;;;;;;;2.28;1.70;;;;;;;25.12;46.91;97329.44;4881802;29;20531;-73
2022/08/15 11:33:43;;;;;;;2.92;2.03;;;;;;;25.09;47.00;97332.72;4891158;29;20502;-73
2022/08/15 11:36:20;;;;;;;1.95;1.70;;;;;;;25.27;45.95;97336.75;4887499;29;20044;-73
2022/08/15 11:39:14;;;;;;;2.42;1.83;;;;;;;24.93;46.98;97338.16;4888302;29;20752;-74
2022/08/15 11:41:56;;;;;;;14.40;3.10;;;;;;;24.80;49.20;97327.91;4900942;29;20117;-73
2022/08/15 11:44:40;;;;;;;2.33;1.60;;;;;;;25.03;47.23;97325.72;4912544;29;20057;-73
2022/08/15 11:47:12;;;;;;;1.98;1.77;;;;;;;25.06;47.11;97320.53;4890207;29;20175;-73
2022/08/15 11:49:48;;;;;;;3.22;1.73;;;;;;;25.05;45.30;97324.34;4894926;29;20047;-73
2022/08/15 11:52:32;;;;;;;2.63;1.75;;;;;;;25.24;45.16;97321.06;4884879;29;20045;-72
2022/08/15 11:55:12;;;;;;;2.72;1.65;;;;;;;25.08;46.27;97320.28;4883606;29;20041;-73
2022/08/15 11:57:49;;;;;;;2.28;1.80;;;;;;;25.06;45.72;97315.13;4891646;29;20674;-73
2022/08/15 12:00:52;;;;;;;2.13;1.88;;;;;;;25.39;44.64;97307.47;4885829;29;20090;-73
2022/08/15 12:03:22;;;;;;;;;;;;;;;25.73;42.77;97302.16;4880885;29;20049;-73
2022/08/15 12:06:13;;;;;;;4.00;2.08;;;;;;;25.93;45.28;97316.69;4895081;29;20358;-73
2022/08/15 12:09:09;;;;;;;2.13;1.90;;;;;;;25.93;42.73;97306.66;4898430;29;20052;-72
2022/08/15 12:11:46;;;;;;;2.55;1.92;;;;;;;25.82;42.61;97303.19;4894607;29;20049;-73
2022/08/15 12:14:23;;;;;;;3.60;1.73;;;;;;;25.72;44.04;97300.53;4888256;29;20060;-72
2022/08/15 12:17:00;;;;;;;2.10;1.90;;;;;;;25.69;43.08;97294.88;4884745;29;20442;-73
2022/08/15 12:19:35;;;;;;;3.15;1.50;;;;;;;25.52;42.42;97289.81;4894336;29;20059;-74
2022/08/15 12:22:39;;;;;;;1.67;1.52;;;;;;;25.61;43.50;97301.69;4895274;29;20062;-72
2022/08/15 12:25:25;;;;;;;2.40;2.05;;;;;;;25.81;43.47;97301.56;4890047;29;20045;-72
2022/08/15 12:28:12;;;;;;;2.25;1.83;;;;;;;25.92;41.24;97285.28;4878173;29;20041;-73
2022/08/15 12:31:04;;;;;;;2.38;1.80;;;;;;;25.72;42.15;97284.28;4884414;29;20056;-72
2022/08/15 12:33:41;;;;;;;2.15;1.70;;;;;;;25.60;42.67;97281.13;4885356;29;20873;-72
2022/08/15 12:36:18;;;;;;;5.78;2.05;;;;;;;25.91;43.94;97286.34;4893772;29;20052;-73
2022/08/15 12:39:04;;;;;;;2.17;1.73;;;;;;;25.60;43.87;97284.63;4885277;29;20049;-73